Time;durP1;ratioP1;P1;durP2;ratioP2;P2;SDS_P1;SDS_P2;PMS_P1;PMS_P2;Temp;Humidity;BMP_temperature;BMP_pressure;BME280_temperature;BME280_humidity;BME280_pressure;Samples;Min_cycle;Max_cycle;Signal;HPM_P1;HPM_P2
2022/06/08 00:00:24;;;;;;;7.38;6.70;;;;;;;20.47;62.96;100719.53;5074999;28;20087;-71
2022/06/08 00:03:00;;;;;;;3.47;1.50;;;;;;;20.31;63.53;100715.66;5081233;28;20052;-70
2022/06/08 00:05:28;;;;;;;3.75;1.80;;;;;;;20.31;63.71;100719.31;5087825;28;20464;-70
2022/06/08 00:07:55;;;;;;;7.82;5.38;;;;;;;20.34;63.58;100712.09;5089027;28;20045;-72
2022/06/08 00:10:22;;;;;;;7.60;7.00;;;;;;;20.27;63.91;100701.34;5083991;28;20099;-72
2022/06/08 00:12:49;;;;;;;7.82;7.03;;;;;;;20.22;64.16;100700.69;5073757;28;20080;-70
2022/06/08 00:15:16;;;;;;;7.82;7.05;;;;;;;20.24;64.25;100706.81;5080525;28;20894;-70
2022/06/08 00:17:44;;;;;;;9.95;9.30;;;;;;;20.09;64.64;100688.41;5078521;28;20127;-70
2022/06/08 00:20:12;;;;;;;9.95;9.02;;;;;;;20.18;64.94;100694.88;5078810;28;20076;-69
2022/06/08 00:22:40;;;;;;;9.00;8.40;;;;;;;20.19;64.98;100695.69;5086155;28;20131;-69
2022/06/08 00:25:08;;;;;;;10.77;9.75;;;;;;;20.14;65.16;100691.06;5080605;28;20131;-69
2022/06/08 00:27:35;;;;;;;10.35;9.82;;;;;;;20.02;65.33;100686.09;5079048;28;20139;-72
2022/06/08 00:30:05;;;;;;;10.70;9.65;;;;;;;19.87;65.29;100647.84;5070340;28;20143;-72
2022/06/08 00:32:32;;;;;;;8.48;8.07;;;;;;;20.04;65.45;100675.25;5075457;28;20131;-72
2022/06/08 00:35:00;;;;;;;7.32;5.15;;;;;;;19.92;65.81;100671.47;5082939;28;20507;-68
2022/06/08 00:37:28;;;;;;;9.88;6.80;;;;;;;19.75;65.85;100632.72;5080232;28;20144;-73
2022/06/08 00:39:55;;;;;;;9.90;9.20;;;;;;;19.90;66.73;100674.69;5071593;28;20048;-69
2022/06/08 00:42:23;;;;;;;7.00;6.38;;;;;;;19.75;67.15;100666.72;5072184;28;20130;-72
2022/06/08 00:44:58;;;;;;;5.88;5.47;;;;;;;19.50;67.26;100623.97;5080988;28;20080;-72
2022/06/08 00:47:33;;;;;;;6.30;5.80;;;;;;;19.79;67.19;100668.53;5084426;28;20090;-73
2022/06/08 00:50:08;;;;;;;6.03;5.63;;;;;;;19.82;67.50;100673.50;5081666;28;20503;-72
2022/06/08 00:52:36;;;;;;;3.38;1.08;;;;;;;19.79;67.75;100679.03;5072624;28;20084;-73
2022/06/08 00:55:08;;;;;;;8.60;8.20;;;;;;;19.72;68.35;100682.41;5091891;28;20075;-72
2022/06/08 00:57:39;;;;;;;6.57;3.88;;;;;;;19.66;68.61;100672.44;5077918;28;20044;-72
2022/06/08 01:00:12;;;;;;;1.45;1.02;;;;;;;19.72;68.85;100667.41;5079516;28;20162;-73
2022/06/08 01:02:39;;;;;;;2.35;0.75;;;;;;;19.71;69.18;100672.25;5085521;28;20080;-72
2022/06/08 01:05:24;;;;;;;2.08;1.05;;;;;;;19.52;69.79;100654.78;5082289;28;20052;-73
2022/06/08 01:07:54;;;;;;;3.35;1.30;;;;;;;19.35;70.26;100633.00;5089287;28;20166;-74
2022/06/08 01:10:25;;;;;;;1.65;0.82;;;;;;;19.50;70.42;100646.63;5089176;28;20135;-76
2022/06/08 01:12:53;;;;;;;1.50;1.05;;;;;;;19.52;70.57;100646.28;5090933;28;20133;-70
2022/06/08 01:15:25;;;;;;;0.90;0.77;;;;;;;19.53;70.39;100630.97;5079963;28;20134;-71
2022/06/08 01:17:52;;;;;;;1.20;0.70;;;;;;;19.46;70.24;100614.50;5073763;28;20067;-72
2022/06/08 01:20:19;;;;;;;0.88;0.80;;;;;;;19.51;70.48;100619.97;5072818;28;20076;-71
2022/06/08 01:22:46;;;;;;;1.35;0.82;;;;;;;19.67;70.53;100648.59;5078210;28;20664;-72
2022/06/08 01:25:15;;;;;;;2.08;1.00;;;;;;;19.57;70.92;100632.78;5082557;28;20151;-71
2022/06/08 01:27:42;;;;;;;2.47;1.20;;;;;;;19.66;70.87;100638.44;5092545;28;20044;-72
2022/06/08 01:30:26;;;;;;;1.35;0.98;;;;;;;19.62;71.29;100623.25;5084229;28;20143;-71
2022/06/08 01:32:56;;;;;;;1.45;0.88;;;;;;;19.68;71.12;100635.25;5081913;28;20121;-74
2022/06/08 01:35:41;;;;;;;1.88;1.02;;;;;;;19.58;71.29;100623.09;5080114;28;20132;-75
2022/06/08 01:38:30;;;;;;;1.38;0.75;;;;;;;19.55;71.64;100618.09;5083323;28;20502;-75
2022/06/08 01:41:36;;;;;;;2.22;1.13;;;;;;;19.61;72.11;100633.75;5079799;28;20537;-73
2022/06/08 01:44:08;;;;;;;2.15;0.98;;;;;;;19.68;71.79;100621.09;5052321;28;20213;-71
2022/06/08 01:47:06;;;;;;;1.52;1.10;;;;;;;19.66;71.97;100624.28;5072280;28;20098;-72
2022/06/08 01:49:51;;;;;;;2.00;0.98;;;;;;;19.73;71.75;100629.41;5086180;28;20054;-71
2022/06/08 01:52:41;;;;;;;1.38;0.80;;;;;;;19.65;71.98;100622.59;5086944;28;20167;-72
2022/06/08 01:55:10;;;;;;;;;;;;;;;19.72;72.06;100622.06;5076312;28;20101;-70
2022/06/08 01:57:58;;;;;;;1.17;0.60;;;;;;;19.75;71.92;100621.38;5072511;28;19920;-71
2022/06/08 02:00:30;;;;;;;4.47;0.85;;;;;;;19.73;72.02;100613.25;5079875;28;20128;-73
2022/06/08 02:03:12;;;;;;;0.93;0.60;;;;;;;19.65;72.18;100600.75;5080185;28;20143;-73
2022/06/08 02:05:56;;;;;;;2.75;1.05;;;;;;;19.79;72.22;100625.19;5074825;28;20415;-74
2022/06/08 02:08:50;;;;;;;1.45;0.80;;;;;;;19.84;72.24;100625.03;5079134;28;20130;-74
2022/06/08 02:11:22;;;;;;;2.42;0.70;;;;;;;19.92;72.26;100631.81;5093355;28;20139;-75
2022/06/08 02:14:03;;;;;;;1.15;0.85;;;;;;;19.92;72.75;100621.28;5090384;28;20174;-75
2022/06/08 02:16:49;;;;;;;2.50;0.80;;;;;;;19.87;72.77;100610.16;5085641;28;20052;-75
2022/06/08 02:19:21;;;;;;;1.00;0.50;;;;;;;20.04;72.92;100629.91;5077664;28;20507;-74
2022/06/08 02:22:03;;;;;;;1.75;1.13;;;;;;;20.00;72.92;100614.75;5087023;28;20087;-75
2022/06/08 02:24:37;;;;;;;1.48;0.90;;;;;;;20.02;73.15;100617.25;5087500;28;20123;-73
2022/06/08 02:27:10;;;;;;;0.57;0.40;;;;;;;20.04;73.10;100612.06;5075383;28;20076;-74
2022/06/08 02:29:40;;;;;;;1.60;0.63;;;;;;;20.18;73.02;100611.81;5078793;28;20425;-73
2022/06/08 02:35:15;;;;;;;0.60;0.60;;;;;;;20.23;72.83;100614.44;5086506;28;20131;-72
2022/06/08 02:37:46;;;;;;;0.38;0.30;;;;;;;20.26;73.04;100608.06;5075309;28;20044;-72
2022/06/08 02:40:18;;;;;;;0.45;0.40;;;;;;;20.18;72.89;100600.47;5076188;28;20048;-72
2022/06/08 02:42:53;;;;;;;0.50;0.38;;;;;;;20.23;73.06;100614.44;5080087;28;20079;-72
2022/06/08 02:45:26;;;;;;;2.40;0.50;;;;;;;20.28;73.26;100611.41;5080421;28;20127;-71
2022/06/08 02:47:58;;;;;;;0.40;0.40;;;;;;;20.15;73.22;100590.63;5080023;28;20131;-71
2022/06/08 02:50:26;;;;;;;0.50;0.40;;;;;;;20.25;73.05;100600.75;5083216;28;20123;-71
2022/06/08 02:53:09;;;;;;;0.47;0.47;;;;;;;20.24;73.42;100599.06;5092671;28;20043;-70
2022/06/08 02:55:54;;;;;;;0.50;0.40;;;;;;;20.29;73.62;100621.56;5084121;28;20055;-71
2022/06/08 02:58:30;;;;;;;0.77;0.60;;;;;;;20.31;73.69;100610.72;5088366;28;20139;-70
2022/06/08 03:01:06;;;;;;;2.10;0.93;;;;;;;20.22;73.97;100595.75;5078968;28;20080;-72
2022/06/08 03:03:45;;;;;;;3.67;1.42;;;;;;;20.34;74.19;100605.19;5079125;28;20048;-71
2022/06/08 03:06:19;;;;;;;3.20;1.65;;;;;;;20.22;74.21;100584.44;5084754;28;20102;-72
2022/06/08 03:08:53;;;;;;;3.15;1.67;;;;;;;20.43;74.45;100601.44;5080072;28;20522;-72
2022/06/08 03:11:22;;;;;;;3.38;1.73;;;;;;;20.41;74.48;100590.47;5082480;28;20048;-73
2022/06/08 03:14:00;;;;;;;5.30;1.80;;;;;;;20.36;74.48;100584.97;5089868;28;20084;-72
2022/06/08 03:16:33;;;;;;;3.63;1.50;;;;;;;20.48;74.74;100604.91;5086836;28;20561;-72
2022/06/08 03:19:01;;;;;;;5.97;1.95;;;;;;;20.55;74.76;100610.88;5082791;28;20139;-73
2022/06/08 03:21:28;;;;;;;6.43;2.15;;;;;;;20.51;74.56;100589.22;5085771;28;20136;-72
2022/06/08 03:23:55;;;;;;;5.00;2.33;;;;;;;20.59;74.54;100596.84;5078746;28;20156;-73
2022/06/08 03:26:25;;;;;;;6.57;2.28;;;;;;;20.62;74.75;100601.00;5078096;28;20090;-72
2022/06/08 03:28:53;;;;;;;8.63;2.40;;;;;;;20.62;74.68;100601.00;5077314;28;20049;-72
2022/06/08 03:31:20;;;;;;;5.43;2.05;;;;;;;20.51;74.62;100567.38;5083573;28;20127;-72
2022/06/08 03:33:47;;;;;;;4.70;2.47;;;;;;;20.66;74.49;100587.75;5087289;28;20047;-72
2022/06/08 03:36:15;;;;;;;3.97;2.38;;;;;;;20.66;74.39;100577.25;5076296;28;20087;-72
2022/06/08 03:38:42;;;;;;;5.22;1.73;;;;;;;20.70;74.59;100589.53;5075674;28;20418;-72
2022/06/08 03:41:10;;;;;;;5.03;2.65;;;;;;;20.82;74.45;100600.97;5076594;28;20056;-71
2022/06/08 03:43:37;;;;;;;6.10;2.00;;;;;;;20.76;74.76;100593.84;5081561;28;20091;-71
2022/06/08 03:46:07;;;;;;;7.65;2.50;;;;;;;20.62;75.00;100581.13;5079599;28;20044;-71
2022/06/08 03:48:35;;;;;;;8.32;3.40;;;;;;;20.61;75.36;100600.13;5080210;28;20048;-73
2022/06/08 03:51:02;;;;;;;8.95;4.03;;;;;;;20.64;75.16;100607.13;5075050;28;20079;-73
2022/06/08 03:53:35;;;;;;;6.70;3.05;;;;;;;20.67;74.94;100601.59;5081391;28;20075;-74
2022/06/08 03:56:05;;;;;;;7.57;2.03;;;;;;;20.44;75.34;100578.38;5076586;28;20086;-72
2022/06/08 03:58:33;;;;;;;5.68;1.85;;;;;;;20.56;75.20;100609.69;5072745;28;20076;-71
2022/06/08 04:01:03;;;;;;;3.20;1.73;;;;;;;20.68;75.14;100622.28;5078331;28;20052;-70
2022/06/08 04:03:31;;;;;;;5.70;1.25;;;;;;;20.69;74.95;100638.16;5088179;28;20099;-74
2022/06/08 04:05:58;;;;;;;4.40;1.58;;;;;;;20.59;75.21;100637.38;5079455;28;20135;-74
2022/06/08 04:08:25;;;;;;;5.65;1.40;;;;;;;20.56;75.12;100621.06;5092136;28;20048;-74
2022/06/08 04:10:53;;;;;;;3.28;1.30;;;;;;;20.69;75.04;100627.63;5077626;28;20474;-74
2022/06/08 04:13:20;;;;;;;2.75;1.00;;;;;;;20.28;75.14;100563.19;5077344;28;20495;-75
2022/06/08 04:15:46;;;;;;;2.67;0.90;;;;;;;20.64;74.71;100618.47;5079759;28;20143;-74
2022/06/08 04:18:17;;;;;;;5.50;0.88;;;;;;;20.62;75.22;100615.19;5091230;28;20131;-72
2022/06/08 04:20:46;;;;;;;2.78;1.55;;;;;;;20.56;75.24;100612.53;5091623;28;20135;-74
2022/06/08 04:23:14;;;;;;;1.38;0.55;;;;;;;20.56;75.35;100614.53;5080713;28;20082;-72
2022/06/08 04:25:42;;;;;;;0.93;0.70;;;;;;;20.54;75.13;100622.56;5083748;28;20135;-72
2022/06/08 04:28:09;;;;;;;4.88;1.40;;;;;;;20.43;75.16;100610.78;5087736;28;20569;-74
2022/06/08 04:30:36;;;;;;;2.05;0.85;;;;;;;20.48;75.36;100619.09;5078747;28;20139;-73
2022/06/08 04:33:03;;;;;;;3.60;1.30;;;;;;;20.11;75.19;100555.66;5080715;28;20146;-72
2022/06/08 04:35:32;;;;;;;2.83;0.80;;;;;;;20.55;75.06;100619.41;5076696;28;20044;-73
2022/06/08 04:38:00;;;;;;;2.80;1.15;;;;;;;20.49;75.34;100612.22;5071969;28;20143;-73
2022/06/08 04:40:28;;;;;;;2.63;0.93;;;;;;;20.50;75.31;100611.09;5090369;28;20124;-73
2022/06/08 04:42:55;;;;;;;3.90;0.80;;;;;;;20.54;75.19;100614.88;5081317;28;20093;-73
2022/06/08 04:45:22;;;;;;;3.25;1.02;;;;;;;20.71;75.31;100630.09;5076970;28;20893;-72
2022/06/08 04:47:49;;;;;;;2.13;0.98;;;;;;;20.49;75.50;100612.22;5081934;28;20045;-73
2022/06/08 04:50:16;;;;;;;1.50;0.90;;;;;;;20.65;75.30;100631.47;5086259;28;20131;-73
2022/06/08 04:52:43;;;;;;;2.72;0.80;;;;;;;20.64;75.38;100641.19;5087788;28;20139;-73
2022/06/08 04:55:13;;;;;;;2.17;0.95;;;;;;;20.38;75.87;100618.69;5081704;28;20135;-73
2022/06/08 04:57:40;;;;;;;0.73;0.43;;;;;;;20.34;75.77;100632.69;5081426;28;20084;-72
2022/06/08 05:00:12;;;;;;;0.93;0.55;;;;;;;20.47;75.67;100651.44;5079791;28;20139;-70
2022/06/08 05:02:45;;;;;;;3.35;0.95;;;;;;;20.35;76.05;100654.22;5078923;28;20117;-71
2022/06/08 05:05:19;;;;;;;1.42;0.70;;;;;;;20.37;75.85;100660.38;5082956;28;20055;-71
2022/06/08 05:07:47;;;;;;;1.67;0.73;;;;;;;20.40;75.97;100658.84;5086214;28;20071;-71
2022/06/08 05:10:15;;;;;;;2.08;0.90;;;;;;;20.42;76.04;100662.19;5081675;28;20058;-69
2022/06/08 05:12:43;;;;;;;1.45;0.73;;;;;;;20.35;75.89;100651.38;5088712;28;20127;-70
2022/06/08 05:15:16;;;;;;;1.70;0.88;;;;;;;20.27;76.12;100649.44;5085332;28;20505;-70
2022/06/08 05:17:42;;;;;;;4.50;1.10;;;;;;;20.20;75.87;100643.47;5091548;28;20487;-71
2022/06/08 05:20:12;;;;;;;3.03;1.00;;;;;;;20.38;75.76;100664.88;5073879;28;20561;-70
2022/06/08 05:22:38;;;;;;;3.50;1.40;;;;;;;20.07;75.46;100626.38;5075422;28;20143;-75
2022/06/08 05:25:08;;;;;;;3.00;1.23;;;;;;;20.33;75.64;100646.03;5084150;28;20475;-74
2022/06/08 05:27:35;;;;;;;4.53;1.38;;;;;;;20.45;75.71;100662.34;5083887;28;20475;-75
2022/06/08 05:30:03;;;;;;;2.92;0.90;;;;;;;20.51;75.46;100661.00;5077792;28;20135;-72
2022/06/08 05:32:30;;;;;;;2.58;1.33;;;;;;;20.50;75.39;100666.97;5087655;28;20109;-72
2022/06/08 05:34:57;;;;;;;4.32;1.15;;;;;;;20.58;75.20;100678.28;5080984;28;20406;-73
2022/06/08 05:37:24;;;;;;;2.78;1.20;;;;;;;20.58;74.97;100669.78;5085296;28;20114;-72
2022/06/08 05:39:51;;;;;;;4.35;0.88;;;;;;;20.53;75.15;100664.28;5078923;28;20072;-72
2022/06/08 05:42:19;;;;;;;3.72;1.58;;;;;;;20.52;74.86;100668.31;5078753;28;20041;-72
2022/06/08 05:44:46;;;;;;;2.47;1.17;;;;;;;20.33;75.05;100636.72;5079269;28;20048;-77
2022/06/08 05:47:13;;;;;;;3.25;1.00;;;;;;;20.50;75.10;100669.78;5079372;28;20387;-73
2022/06/08 05:49:40;;;;;;;8.75;1.50;;;;;;;20.74;75.02;100689.84;5078259;28;20139;-73
2022/06/08 05:52:07;;;;;;;4.75;1.40;;;;;;;20.55;74.84;100650.59;5080185;28;20131;-70
2022/06/08 05:54:34;;;;;;;5.43;1.75;;;;;;;20.59;75.11;100671.44;5078788;28;20135;-72
2022/06/08 05:57:03;;;;;;;6.70;2.20;;;;;;;20.69;75.44;100664.50;5079958;28;20593;-72
2022/06/08 05:59:30;;;;;;;7.70;2.15;;;;;;;20.75;75.05;100682.16;5077370;28;20143;-71
2022/06/08 06:01:57;;;;;;;4.68;1.90;;;;;;;20.66;75.03;100681.41;5076896;28;20589;-72
2022/06/08 06:04:24;;;;;;;4.00;1.98;;;;;;;20.70;75.42;100686.03;5087884;28;20044;-73
2022/06/08 06:06:51;;;;;;;6.13;2.22;;;;;;;20.71;75.39;100675.50;5076217;28;20075;-73
2022/06/08 06:09:19;;;;;;;3.97;1.55;;;;;;;20.62;75.05;100643.56;5085606;28;20072;-73
2022/06/08 06:11:47;;;;;;;4.95;1.98;;;;;;;20.74;75.03;100671.97;5081863;28;20043;-74
2022/06/08 06:14:14;;;;;;;4.47;1.50;;;;;;;20.53;75.01;100640.78;5074355;28;20086;-77
2022/06/08 06:16:41;;;;;;;1.73;1.05;;;;;;;20.79;75.25;100689.63;5075909;28;20056;-74
2022/06/08 06:19:09;;;;;;;7.05;1.52;;;;;;;20.75;75.10;100682.16;5074888;28;20504;-85
2022/06/08 06:21:36;;;;;;;6.38;1.50;;;;;;;20.82;75.38;100699.47;5078767;28;20052;-83
2022/06/08 06:24:04;;;;;;;4.30;1.65;;;;;;;20.75;75.44;100699.16;5082753;28;20044;-80
2022/06/08 06:26:31;;;;;;;3.72;1.50;;;;;;;20.75;75.52;100702.88;5075938;28;20455;-82
2022/06/08 06:28:58;;;;;;;6.88;1.88;;;;;;;20.74;75.32;100701.19;5078119;28;20053;-81
2022/06/08 06:31:30;;;;;;;6.22;1.40;;;;;;;20.72;75.40;100697.88;5079012;28;20052;-84
2022/06/08 06:33:58;;;;;;;4.72;1.98;;;;;;;20.83;75.68;100718.16;5085349;28;20102;-78
2022/06/08 06:36:25;;;;;;;4.90;1.70;;;;;;;20.95;75.50;100720.22;5073738;28;20395;-83
2022/06/08 06:38:52;;;;;;;4.20;1.83;;;;;;;21.02;75.60;100732.69;5082169;28;20139;-73
2022/06/08 06:41:20;;;;;;;6.45;1.52;;;;;;;20.84;75.38;100688.59;5078979;28;20048;-74
2022/06/08 06:43:47;;;;;;;2.78;1.20;;;;;;;20.88;75.29;100720.78;5086920;28;20131;-73
2022/06/08 06:46:15;;;;;;;5.18;1.50;;;;;;;20.77;75.45;100736.56;5074348;28;20467;-74
2022/06/08 06:48:43;;;;;;;5.35;2.05;;;;;;;20.71;75.82;100729.41;5081733;28;20091;-75
2022/06/08 06:51:11;;;;;;;2.25;1.33;;;;;;;20.57;75.82;100718.34;5071146;28;20059;-75
2022/06/08 06:53:38;;;;;;;4.10;1.58;;;;;;;20.58;75.73;100740.72;5080057;28;20075;-76
2022/06/08 06:56:06;;;;;;;4.00;1.42;;;;;;;20.47;75.69;100728.03;5083845;28;20087;-75
2022/06/08 06:58:33;;;;;;;3.20;1.38;;;;;;;20.46;75.79;100732.06;5081203;28;20122;-76
2022/06/08 07:01:01;;;;;;;7.32;1.30;;;;;;;20.43;75.98;100727.06;5071970;28;20134;-76
2022/06/08 07:03:29;;;;;;;10.38;1.98;;;;;;;20.44;76.18;100728.72;5080516;28;20055;-75
2022/06/08 07:05:57;;;;;;;2.75;1.40;;;;;;;20.28;76.22;100733.34;5078746;28;20482;-76
2022/06/08 07:08:24;;;;;;;2.92;1.17;;;;;;;20.35;76.14;100733.66;5080249;28;20134;-76
2022/06/08 07:13:36;;;;;;;5.53;2.40;;;;;;;20.39;76.21;100740.28;5075651;28;20076;-77
2022/06/08 07:16:06;;;;;;;4.90;2.28;;;;;;;20.53;76.29;100751.41;5078035;28;20106;-76
2022/06/08 07:18:34;;;;;;;3.38;1.60;;;;;;;20.58;76.16;100756.88;5076179;28;20117;-78
2022/06/08 07:21:02;;;;;;;4.57;1.40;;;;;;;20.55;76.27;100744.22;5083369;28;20458;-77
2022/06/08 07:23:29;;;;;;;3.72;1.33;;;;;;;20.53;76.03;100743.72;5084760;28;20052;-76
2022/06/08 07:25:56;;;;;;;4.47;1.60;;;;;;;20.57;76.37;100760.91;5085476;28;20490;-78
2022/06/08 07:28:23;;;;;;;4.63;1.38;;;;;;;20.47;76.00;100741.41;5082359;28;20533;-78
2022/06/08 07:30:52;;;;;;;7.47;1.88;;;;;;;20.51;76.40;100756.59;5074638;28;20159;-77
2022/06/08 07:33:19;;;;;;;4.13;1.50;;;;;;;20.51;76.47;100756.59;5078460;28;20048;-78
2022/06/08 07:35:47;;;;;;;3.88;1.50;;;;;;;20.48;76.71;100755.25;5079863;28;20123;-78
2022/06/08 07:38:20;;;;;;;5.50;1.50;;;;;;;20.61;76.70;100755.38;5078602;28;20672;-78
2022/06/08 07:40:48;;;;;;;4.95;1.92;;;;;;;20.67;76.91;100760.50;5061875;28;20578;-78
2022/06/08 07:43:15;;;;;;;4.95;1.73;;;;;;;20.67;76.86;100756.84;5086186;28;20130;-77
2022/06/08 07:45:43;;;;;;;5.85;1.83;;;;;;;20.73;76.61;100761.13;5083634;28;20052;-78
2022/06/08 07:50:55;;;;;;;7.00;1.63;;;;;;;20.87;76.25;100738.16;5079024;28;20056;-78
2022/06/08 07:53:22;;;;;;;3.85;1.50;;;;;;;21.20;76.09;100775.97;5077875;28;20087;-71
2022/06/08 07:55:49;;;;;;;3.05;1.40;;;;;;;21.33;75.87;100771.16;5074545;28;20132;-72
2022/06/08 07:58:16;;;;;;;3.15;1.70;;;;;;;21.44;75.60;100775.28;5077663;28;20425;-73
2022/06/08 08:00:47;;;;;;;5.22;1.60;;;;;;;21.37;75.25;100760.81;5076182;28;20396;-71
2022/06/08 08:03:18;;;;;;;5.00;1.58;;;;;;;21.43;75.35;100776.44;5075122;28;20076;-73
2022/06/08 08:05:46;;;;;;;5.35;1.73;;;;;;;21.50;74.70;100776.75;5075148;28;20049;-73
2022/06/08 08:08:15;;;;;;;3.35;1.15;;;;;;;21.47;75.04;100791.66;5083311;28;20072;-71
2022/06/08 08:10:42;;;;;;;7.20;1.30;;;;;;;21.33;74.87;100776.03;5073543;28;20076;-71
2022/06/08 08:13:09;;;;;;;4.82;1.55;;;;;;;21.24;74.74;100767.59;5073041;28;20502;-71
2022/06/08 08:15:37;;;;;;;2.58;1.55;;;;;;;21.16;74.90;100757.13;5076850;28;20147;-72
2022/06/08 08:18:04;;;;;;;9.70;2.90;;;;;;;21.28;74.82;100788.44;5073298;28;20514;-74
2022/06/08 08:20:34;;;;;;;3.28;1.50;;;;;;;21.22;75.33;100779.28;5071532;28;20068;-70
2022/06/08 08:23:01;;;;;;;2.45;1.30;;;;;;;21.39;75.38;100791.72;5078390;28;20171;-72
2022/06/08 08:25:28;;;;;;;5.72;2.00;;;;;;;21.52;75.42;100773.53;5075456;28;20094;-72
2022/06/08 08:27:57;;;;;;;6.85;1.50;;;;;;;21.70;75.17;100748.59;5075809;28;20075;-72
2022/06/08 08:30:27;;;;;;;4.63;1.75;;;;;;;22.10;74.79;100790.63;5073744;28;20177;-72
2022/06/08 08:32:54;;;;;;;;;;;;;;;22.10;75.18;100785.78;5081154;28;20050;-73
2022/06/08 08:35:23;;;;;;;7.18;1.88;;;;;;;22.06;75.21;100786.84;5081154;28;19974;-73
2022/06/08 08:37:51;;;;;;;2.33;1.60;;;;;;;22.21;74.72;100781.31;5079305;28;20139;-73
2022/06/08 08:40:44;;;;;;;6.22;1.90;;;;;;;22.33;74.55;100794.72;5078655;28;20332;-73
2022/06/08 08:43:15;;;;;;;3.40;1.23;;;;;;;22.36;74.29;100801.69;5074203;28;20052;-72
2022/06/08 08:46:04;;;;;;;2.42;1.40;;;;;;;22.22;73.95;100802.91;5070399;28;20058;-72
2022/06/08 08:48:42;;;;;;;8.73;2.03;;;;;;;22.11;74.99;100804.50;5069234;28;20052;-72
2022/06/08 08:51:26;;;;;;;6.00;1.90;;;;;;;21.97;74.59;100806.84;5080302;28;20815;-71
2022/06/08 08:54:24;;;;;;;3.40;1.13;;;;;;;21.74;75.11;100792.19;5079528;28;20614;-72
2022/06/08 08:56:54;;;;;;;4.40;1.55;;;;;;;21.71;74.84;100804.28;5066432;28;20885;-71
2022/06/08 08:59:24;;;;;;;;;;;;;;;21.57;75.92;100800.91;5069075;28;20486;-71
2022/06/08 09:01:52;;;;;;;;;;;;;;;21.51;76.15;100798.28;5071578;28;19982;-72
2022/06/08 09:04:52;;;;;;;2.65;1.00;;;;;;;21.29;75.80;100764.53;5074613;28;20696;-71
2022/06/08 09:07:21;;;;;;;4.10;1.52;;;;;;;21.56;75.62;100796.41;5071336;28;20083;-69
2022/06/08 09:09:48;;;;;;;4.93;0.90;;;;;;;21.42;75.72;100780.47;5069689;28;20076;-73
2022/06/08 09:12:19;;;;;;;4.72;1.35;;;;;;;21.38;75.47;100776.69;5071068;28;20078;-74
2022/06/08 09:14:58;;;;;;;4.40;1.40;;;;;;;21.37;75.39;100772.19;5072393;28;20056;-73
2022/06/08 09:17:48;;;;;;;5.43;1.85;;;;;;;21.41;75.58;100786.53;5073329;28;20080;-74
2022/06/08 09:20:15;;;;;;;4.82;1.52;;;;;;;21.64;75.32;100804.00;5076719;28;20080;-70
2022/06/08 09:22:48;;;;;;;1.58;1.10;;;;;;;21.70;75.21;100799.75;5080553;28;20394;-70
2022/06/08 09:25:32;;;;;;;6.25;1.70;;;;;;;21.75;75.83;100794.69;5084311;28;20059;-68
2022/06/08 09:27:59;;;;;;;1.40;0.90;;;;;;;21.81;74.89;100792.44;5091582;28;20446;-68
2022/06/08 09:30:30;;;;;;;2.42;1.40;;;;;;;21.87;74.90;100796.72;5076887;28;20135;-70
2022/06/08 09:33:24;;;;;;;11.00;1.45;;;;;;;22.01;75.39;100802.94;5095450;28;20048;-70
2022/06/08 09:35:55;;;;;;;5.20;1.38;;;;;;;22.15;74.79;100810.34;5078669;28;20048;-70
2022/06/08 09:38:25;;;;;;;3.28;1.17;;;;;;;22.28;74.65;100805.50;5086806;28;20455;-71
2022/06/08 09:41:21;;;;;;;3.45;1.48;;;;;;;22.17;74.69;100813.66;5074033;28;20079;-71
2022/06/08 09:44:09;;;;;;;2.38;1.40;;;;;;;21.96;74.88;100817.38;5080259;28;20044;-70
2022/06/08 09:52:53;;;;;;;1.77;1.20;;;;;;;21.60;75.42;100803.03;5075724;28;20118;-70
2022/06/08 09:55:31;;;;;;;3.70;1.20;;;;;;;21.76;75.07;100809.75;5077661;28;20328;-70
2022/06/08 09:58:10;;;;;;;5.57;1.85;;;;;;;21.76;74.90;100809.75;5098047;28;20092;-70
2022/06/08 10:00:54;;;;;;;2.50;1.45;;;;;;;21.73;75.01;100802.72;5083221;28;20554;-69
2022/06/08 10:03:52;;;;;;;2.28;1.33;;;;;;;21.73;75.02;100807.59;5089405;28;20512;-68
2022/06/08 10:06:22;;;;;;;3.38;1.27;;;;;;;21.72;74.96;100817.31;5084803;28;20127;-71
2022/06/08 10:09:10;;;;;;;3.33;1.50;;;;;;;21.80;75.32;100818.41;5093369;28;20068;-70
2022/06/08 10:12:12;;;;;;;3.80;2.05;;;;;;;22.05;75.77;100824.97;5089751;28;20135;-70
2022/06/08 10:14:45;;;;;;;3.03;1.60;;;;;;;22.30;75.11;100838.09;5069644;28;20083;-70
2022/06/08 10:17:17;;;;;;;2.45;1.30;;;;;;;22.29;74.74;100839.31;5095667;28;20075;-69
2022/06/08 10:20:11;;;;;;;6.20;2.90;;;;;;;22.32;74.81;100834.91;5092631;28;20498;-70
2022/06/08 10:22:54;;;;;;;3.42;1.60;;;;;;;22.39;74.47;100841.69;5092418;28;20131;-68
2022/06/08 10:25:49;;;;;;;4.85;1.70;;;;;;;22.42;74.64;100840.13;5081124;28;20072;-68
2022/06/08 10:28:27;;;;;;;5.53;1.63;;;;;;;22.25;74.42;100818.41;5080238;28;20119;-69
2022/06/08 10:31:06;;;;;;;2.05;1.35;;;;;;;22.44;74.56;100830.06;5077869;28;20098;-69
2022/06/08 10:33:46;;;;;;;2.90;1.25;;;;;;;22.57;74.36;100841.47;5091193;28;20134;-68
2022/06/08 10:36:14;;;;;;;2.92;1.40;;;;;;;22.76;74.23;100858.75;5085641;28;20052;-68
2022/06/08 10:38:43;;;;;;;2.05;1.02;;;;;;;22.85;73.81;100841.56;5092593;28;20574;-70
2022/06/08 10:44:00;;;;;;;5.40;1.35;;;;;;;22.73;73.63;100859.47;5067895;28;20101;-69
2022/06/08 10:46:47;;;;;;;5.45;1.73;;;;;;;22.64;74.41;100850.25;5074249;28;20044;-68
2022/06/08 10:49:32;;;;;;;4.13;1.80;;;;;;;22.80;73.87;100859.72;5081145;28;20048;-68
2022/06/08 10:52:14;;;;;;;3.75;1.60;;;;;;;22.84;73.82;100860.69;5075033;28;20080;-68
2022/06/08 10:54:55;;;;;;;4.80;1.70;;;;;;;22.78;73.53;100862.09;5073273;28;20105;-69
2022/06/08 10:57:35;;;;;;;4.03;1.48;;;;;;;22.66;74.15;100857.22;5076413;28;20063;-68
2022/06/08 11:00:24;;;;;;;7.85;2.08;;;;;;;22.63;74.53;100866.50;5073056;28;20507;-68
2022/06/08 11:03:03;;;;;;;6.07;1.98;;;;;;;22.74;73.75;100874.56;5074754;28;20060;-68
2022/06/08 11:05:30;;;;;;;2.20;1.20;;;;;;;22.79;73.49;100871.47;5075112;28;20061;-68
2022/06/08 11:08:00;;;;;;;4.35;2.40;;;;;;;22.76;73.84;100867.31;5080755;28;20079;-68
2022/06/08 11:10:53;;;;;;;3.35;1.42;;;;;;;22.80;73.92;100873.94;5083988;28;20139;-68
2022/06/08 11:13:26;;;;;;;4.97;2.00;;;;;;;22.85;73.54;100879.41;5070964;28;20136;-67
2022/06/08 11:15:53;;;;;;;8.02;1.77;;;;;;;22.87;73.59;100885.59;5066709;28;21786;-68
2022/06/08 11:18:32;;;;;;;3.33;1.73;;;;;;;22.85;73.63;100870.88;5069344;28;20095;-66
2022/06/08 11:21:14;;;;;;;4.25;1.50;;;;;;;22.84;73.75;100882.63;5073526;28;20052;-69
2022/06/08 11:23:59;;;;;;;2.03;1.10;;;;;;;22.84;73.41;100877.75;5073235;28;20090;-68
2022/06/08 11:26:45;;;;;;;4.30;1.27;;;;;;;22.75;73.32;100859.97;5076830;28;20053;-67
2022/06/08 11:29:17;;;;;;;2.33;1.13;;;;;;;23.04;72.54;100887.41;5078942;28;20143;-68
2022/06/08 11:31:44;;;;;;;7.63;1.80;;;;;;;23.01;72.72;100895.81;5073102;28;20491;-69
2022/06/08 11:34:20;;;;;;;3.45;1.45;;;;;;;22.86;72.63;100901.00;5070700;28;20069;-68
2022/06/08 11:36:55;;;;;;;2.83;1.10;;;;;;;22.82;72.90;100888.66;5072826;28;20079;-67
2022/06/08 11:39:34;;;;;;;8.95;1.40;;;;;;;22.70;73.04;100869.56;5080032;28;20130;-66
2022/06/08 11:42:22;;;;;;;2.65;1.33;;;;;;;22.78;73.56;100893.41;5095226;28;20471;-67
2022/06/08 11:44:56;;;;;;;2.97;1.35;;;;;;;22.62;73.20;100895.28;5071616;28;20061;-68
2022/06/08 11:48:01;;;;;;;1.77;1.20;;;;;;;22.50;74.08;100893.28;5075164;28;20767;-68
2022/06/08 11:50:53;;;;;;;2.03;1.13;;;;;;;22.47;73.14;100899.66;5031417;28;20056;-69
2022/06/08 11:53:48;;;;;;;1.30;0.80;;;;;;;22.20;74.19;100896.28;5086144;28;20478;-68
2022/06/08 11:56:24;;;;;;;4.25;1.58;;;;;;;22.13;74.20;100889.47;5076811;28;20126;-69
2022/06/08 11:59:03;;;;;;;4.63;1.30;;;;;;;22.13;74.36;100878.09;5072632;28;20083;-68
2022/06/08 12:01:49;;;;;;;2.85;1.25;;;;;;;22.21;74.69;100895.09;5075573;28;20134;-68
2022/06/08 12:04:21;;;;;;;5.47;1.90;;;;;;;22.19;73.84;100899.50;5074060;28;20052;-72
2022/06/08 12:06:48;;;;;;;3.45;1.35;;;;;;;22.12;73.99;100890.66;5072015;28;20510;-68
2022/06/08 12:09:26;;;;;;;3.58;1.67;;;;;;;22.10;74.84;100871.09;5071634;28;20075;-68